createdAt,value
2023-01-08T00:28:31.606Z,99
2023-01-08T00:58:36.591Z,99
2023-01-08T01:28:41.561Z,99
2023-01-08T01:58:45.554Z,98
2023-01-08T02:28:47.540Z,98
2023-01-08T02:58:50.459Z,98
2023-01-08T03:28:53.447Z,98
2023-01-08T03:58:59.584Z,98
2023-01-08T04:29:01.420Z,98
2023-01-08T04:59:03.353Z,98
2023-01-08T05:29:07.313Z,98
2023-01-08T05:59:08.872Z,99
2023-01-08T06:29:11.860Z,98
2023-01-08T06:59:20.798Z,99
2023-01-08T07:29:21.780Z,99
2023-01-08T07:59:23.953Z,99
2023-01-08T08:29:34.770Z,99
2023-01-08T08:59:36.870Z,98
2023-01-08T09:29:39.769Z,98
2023-01-08T09:59:42.755Z,98
2023-01-08T10:29:43.706Z,97
2023-01-08T10:59:45.725Z,97
2023-01-08T11:29:45.728Z,95
2023-01-08T11:59:51.651Z,91
2023-01-08T12:30:01.865Z,93
2023-01-08T13:00:05.732Z,94
2023-01-08T13:30:06.671Z,94
2023-01-08T14:00:08.681Z,93
2023-01-08T14:30:14.734Z,94
2023-01-08T15:00:15.966Z,94
2023-01-08T15:30:19.729Z,95
2023-01-08T16:00:24.648Z,96
2023-01-08T16:30:25.637Z,96
2023-01-08T17:00:27.653Z,96
2023-01-08T17:30:31.602Z,96
2023-01-08T18:00:40.099Z,97
2023-01-08T18:30:44.167Z,97
2023-01-08T19:00:47.042Z,97
2023-01-08T19:30:52.032Z,97
2023-01-08T20:00:54.956Z,97
2023-01-08T20:30:56.017Z,97
2023-01-08T21:01:04.080Z,97
2023-01-08T21:31:11.923Z,97
2023-01-08T22:01:16.928Z,97
2023-01-08T22:31:18.038Z,97
2023-01-08T23:01:22.065Z,97
2023-01-08T23:31:25.932Z,97
